sensor_id;sensor_type;location;lat;lon;timestamp;P1;durP1;ratioP1;P2;durP2;ratioP2
58982;SDS011;44771;49.982;8.560;2023-05-07T00:04:23;12.55;;;11.75;;
58982;SDS011;44771;49.982;8.560;2023-05-07T00:09:25;12.82;;;11.98;;
58982;SDS011;44771;49.982;8.560;2023-05-07T00:14:27;12.25;;;11.10;;
58982;SDS011;44771;49.982;8.560;2023-05-07T00:19:37;13.82;;;12.90;;
58982;SDS011;44771;49.982;8.560;2023-05-07T00:24:44;13.40;;;12.30;;
58982;SDS011;44771;49.982;8.560;2023-05-07T00:29:53;13.75;;;12.68;;
58982;SDS011;44771;49.982;8.560;2023-05-07T00:35:20;12.30;;;11.60;;
58982;SDS011;44771;49.982;8.560;2023-05-07T00:40:37;12.93;;;11.93;;
58982;SDS011;44771;49.982;8.560;2023-05-07T00:45:44;13.07;;;11.88;;
58982;SDS011;44771;49.982;8.560;2023-05-07T00:50:47;13.02;;;12.13;;
58982;SDS011;44771;49.982;8.560;2023-05-07T00:55:49;12.75;;;11.57;;
58982;SDS011;44771;49.982;8.560;2023-05-07T01:00:51;12.85;;;12.05;;
58982;SDS011;44771;49.982;8.560;2023-05-07T01:05:54;13.07;;;12.18;;
58982;SDS011;44771;49.982;8.560;2023-05-07T01:10:58;11.75;;;10.73;;
58982;SDS011;44771;49.982;8.560;2023-05-07T01:16:05;13.05;;;12.07;;
58982;SDS011;44771;49.982;8.560;2023-05-07T01:21:10;13.32;;;12.30;;
58982;SDS011;44771;49.982;8.560;2023-05-07T01:26:13;12.47;;;11.70;;
58982;SDS011;44771;49.982;8.560;2023-05-07T01:31:15;12.90;;;11.95;;
58982;SDS011;44771;49.982;8.560;2023-05-07T01:36:18;12.40;;;11.65;;
58982;SDS011;44771;49.982;8.560;2023-05-07T01:41:27;13.15;;;12.35;;
58982;SDS011;44771;49.982;8.560;2023-05-07T01:46:29;13.40;;;12.50;;
58982;SDS011;44771;49.982;8.560;2023-05-07T01:51:32;13.60;;;12.70;;
58982;SDS011;44771;49.982;8.560;2023-05-07T01:56:36;14.27;;;13.15;;
58982;SDS011;44771;49.982;8.560;2023-05-07T02:01:38;13.77;;;12.73;;
58982;SDS011;44771;49.982;8.560;2023-05-07T02:06:40;13.90;;;12.93;;
58982;SDS011;44771;49.982;8.560;2023-05-07T02:11:47;13.30;;;12.35;;
58982;SDS011;44771;49.982;8.560;2023-05-07T02:16:49;13.73;;;12.45;;
58982;SDS011;44771;49.982;8.560;2023-05-07T02:21:51;13.32;;;12.43;;
58982;SDS011;44771;49.982;8.560;2023-05-07T02:26:54;13.75;;;12.93;;
58982;SDS011;44771;49.982;8.560;2023-05-07T02:31:56;13.25;;;12.35;;
58982;SDS011;44771;49.982;8.560;2023-05-07T02:36:57;13.52;;;12.52;;
58982;SDS011;44771;49.982;8.560;2023-05-07T02:42:00;14.00;;;12.95;;
58982;SDS011;44771;49.982;8.560;2023-05-07T02:47:03;13.02;;;11.77;;
58982;SDS011;44771;49.982;8.560;2023-05-07T02:52:05;13.85;;;12.95;;
58982;SDS011;44771;49.982;8.560;2023-05-07T02:57:08;15.02;;;13.82;;
58982;SDS011;44771;49.982;8.560;2023-05-07T03:02:10;13.55;;;12.43;;
58982;SDS011;44771;49.982;8.560;2023-05-07T03:07:12;12.85;;;11.68;;
58982;SDS011;44771;49.982;8.560;2023-05-07T03:12:19;13.43;;;12.40;;
58982;SDS011;44771;49.982;8.560;2023-05-07T03:17:24;14.43;;;13.18;;
58982;SDS011;44771;49.982;8.560;2023-05-07T03:22:28;13.73;;;12.55;;
58982;SDS011;44771;49.982;8.560;2023-05-07T03:27:31;13.40;;;12.43;;
58982;SDS011;44771;49.982;8.560;2023-05-07T03:32:33;14.07;;;12.95;;
58982;SDS011;44771;49.982;8.560;2023-05-07T03:37:35;15.02;;;13.80;;
58982;SDS011;44771;49.982;8.560;2023-05-07T03:42:38;14.00;;;12.95;;
58982;SDS011;44771;49.982;8.560;2023-05-07T03:47:40;11.45;;;10.48;;
58982;SDS011;44771;49.982;8.560;2023-05-07T03:52:42;13.50;;;12.65;;
58982;SDS011;44771;49.982;8.560;2023-05-07T03:57:48;14.32;;;13.18;;
58982;SDS011;44771;49.982;8.560;2023-05-07T04:02:50;12.75;;;11.95;;
58982;SDS011;44771;49.982;8.560;2023-05-07T04:07:52;12.70;;;11.70;;
58982;SDS011;44771;49.982;8.560;2023-05-07T04:12:55;12.50;;;11.38;;
58982;SDS011;44771;49.982;8.560;2023-05-07T04:17:57;14.15;;;13.25;;
58982;SDS011;44771;49.982;8.560;2023-05-07T04:22:59;14.85;;;13.40;;
58982;SDS011;44771;49.982;8.560;2023-05-07T04:28:03;14.48;;;13.38;;
58982;SDS011;44771;49.982;8.560;2023-05-07T04:33:05;13.65;;;12.63;;
58982;SDS011;44771;49.982;8.560;2023-05-07T04:38:06;14.32;;;13.07;;
58982;SDS011;44771;49.982;8.560;2023-05-07T04:43:10;14.02;;;12.82;;
58982;SDS011;44771;49.982;8.560;2023-05-07T04:48:11;14.43;;;13.23;;
58982;SDS011;44771;49.982;8.560;2023-05-07T04:53:13;14.20;;;13.27;;
58982;SDS011;44771;49.982;8.560;2023-05-07T04:58:18;13.85;;;12.65;;
58982;SDS011;44771;49.982;8.560;2023-05-07T05:03:20;14.13;;;12.98;;
58982;SDS011;44771;49.982;8.560;2023-05-07T05:08:22;13.75;;;12.85;;
58982;SDS011;44771;49.982;8.560;2023-05-07T05:13:27;13.00;;;11.93;;
58982;SDS011;44771;49.982;8.560;2023-05-07T05:18:29;14.55;;;13.45;;
58982;SDS011;44771;49.982;8.560;2023-05-07T05:23:30;14.18;;;13.18;;
58982;SDS011;44771;49.982;8.560;2023-05-07T05:28:35;13.65;;;12.65;;
58982;SDS011;44771;49.982;8.560;2023-05-07T05:33:37;13.75;;;12.85;;
58982;SDS011;44771;49.982;8.560;2023-05-07T05:38:39;14.30;;;13.20;;
58982;SDS011;44771;49.982;8.560;2023-05-07T05:43:43;14.73;;;13.25;;
58982;SDS011;44771;49.982;8.560;2023-05-07T05:48:45;13.77;;;12.88;;
58982;SDS011;44771;49.982;8.560;2023-05-07T05:53:47;13.27;;;12.27;;
58982;SDS011;44771;49.982;8.560;2023-05-07T05:59:01;12.52;;;11.52;;
58982;SDS011;44771;49.982;8.560;2023-05-07T06:04:05;12.93;;;11.82;;
58982;SDS011;44771;49.982;8.560;2023-05-07T06:09:07;12.90;;;11.90;;
58982;SDS011;44771;49.982;8.560;2023-05-07T06:14:10;14.30;;;13.20;;
58982;SDS011;44771;49.982;8.560;2023-05-07T06:19:12;13.95;;;12.90;;
58982;SDS011;44771;49.982;8.560;2023-05-07T06:24:14;13.18;;;12.27;;
58982;SDS011;44771;49.982;8.560;2023-05-07T06:29:17;13.70;;;12.60;;
58982;SDS011;44771;49.982;8.560;2023-05-07T06:34:19;13.75;;;12.77;;
58982;SDS011;44771;49.982;8.560;2023-05-07T06:39:21;14.10;;;13.20;;
58982;SDS011;44771;49.982;8.560;2023-05-07T06:44:24;13.77;;;12.52;;
58982;SDS011;44771;49.982;8.560;2023-05-07T06:49:26;14.15;;;13.15;;
58982;SDS011;44771;49.982;8.560;2023-05-07T06:54:28;14.15;;;13.15;;
58982;SDS011;44771;49.982;8.560;2023-05-07T06:59:34;17.75;;;11.12;;
58982;SDS011;44771;49.982;8.560;2023-05-07T07:04:35;12.48;;;11.43;;
58982;SDS011;44771;49.982;8.560;2023-05-07T07:09:37;13.85;;;12.77;;
58982;SDS011;44771;49.982;8.560;2023-05-07T07:14:40;13.98;;;13.05;;
58982;SDS011;44771;49.982;8.560;2023-05-07T07:19:42;13.32;;;12.32;;
58982;SDS011;44771;49.982;8.560;2023-05-07T07:24:44;14.73;;;13.52;;
58982;SDS011;44771;49.982;8.560;2023-05-07T07:29:48;14.35;;;13.35;;
58982;SDS011;44771;49.982;8.560;2023-05-07T07:34:55;14.77;;;13.77;;
58982;SDS011;44771;49.982;8.560;2023-05-07T07:39:57;13.50;;;12.35;;
58982;SDS011;44771;49.982;8.560;2023-05-07T07:45:00;13.05;;;12.05;;
58982;SDS011;44771;49.982;8.560;2023-05-07T07:50:02;15.40;;;14.23;;
58982;SDS011;44771;49.982;8.560;2023-05-07T07:55:04;14.20;;;13.20;;
58982;SDS011;44771;49.982;8.560;2023-05-07T08:00:12;13.82;;;12.82;;
58982;SDS011;44771;49.982;8.560;2023-05-07T08:05:18;14.95;;;13.73;;
58982;SDS011;44771;49.982;8.560;2023-05-07T08:10:20;13.50;;;12.48;;
58982;SDS011;44771;49.982;8.560;2023-05-07T08:15:23;15.10;;;14.00;;
58982;SDS011;44771;49.982;8.560;2023-05-07T08:20:25;15.27;;;14.07;;
58982;SDS011;44771;49.982;8.560;2023-05-07T08:25:29;14.50;;;13.10;;
58982;SDS011;44771;49.982;8.560;2023-05-07T08:30:35;14.45;;;13.38;;
58982;SDS011;44771;49.982;8.560;2023-05-07T08:35:40;13.80;;;12.70;;
58982;SDS011;44771;49.982;8.560;2023-05-07T09:14:15;15.27;;;14.27;;
58982;SDS011;44771;49.982;8.560;2023-05-07T09:19:22;15.82;;;14.52;;
58982;SDS011;44771;49.982;8.560;2023-05-07T09:24:25;15.93;;;14.75;;
58982;SDS011;44771;49.982;8.560;2023-05-07T09:29:27;14.40;;;13.20;;
58982;SDS011;44771;49.982;8.560;2023-05-07T09:34:29;13.95;;;12.85;;
58982;SDS011;44771;49.982;8.560;2023-05-07T09:39:43;14.57;;;13.48;;
58982;SDS011;44771;49.982;8.560;2023-05-07T09:44:46;14.85;;;13.62;;
58982;SDS011;44771;49.982;8.560;2023-05-07T09:49:48;14.38;;;13.43;;
58982;SDS011;44771;49.982;8.560;2023-05-07T09:54:52;16.33;;;14.18;;
58982;SDS011;44771;49.982;8.560;2023-05-07T10:00:02;14.80;;;13.45;;
58982;SDS011;44771;49.982;8.560;2023-05-07T10:05:08;15.02;;;13.82;;
58982;SDS011;44771;49.982;8.560;2023-05-07T10:10:35;13.95;;;12.90;;
58982;SDS011;44771;49.982;8.560;2023-05-07T10:15:53;13.98;;;13.07;;
58982;SDS011;44771;49.982;8.560;2023-05-07T11:13:42;12.80;;;12.07;;
58982;SDS011;44771;49.982;8.560;2023-05-07T11:18:50;11.60;;;10.77;;
58982;SDS011;44771;49.982;8.560;2023-05-07T11:29:08;11.35;;;10.35;;
58982;SDS011;44771;49.982;8.560;2023-05-07T11:34:15;10.35;;;9.65;;
58982;SDS011;44771;49.982;8.560;2023-05-07T11:39:25;10.77;;;9.75;;
58982;SDS011;44771;49.982;8.560;2023-05-07T11:44:42;11.95;;;11.07;;
58982;SDS011;44771;49.982;8.560;2023-05-07T11:50:04;11.35;;;10.65;;
58982;SDS011;44771;49.982;8.560;2023-05-07T11:55:13;10.32;;;9.73;;
58982;SDS011;44771;49.982;8.560;2023-05-07T12:00:25;10.45;;;9.73;;
58982;SDS011;44771;49.982;8.560;2023-05-07T12:05:28;11.90;;;10.23;;
58982;SDS011;44771;49.982;8.560;2023-05-07T12:10:30;11.77;;;11.05;;
58982;SDS011;44771;49.982;8.560;2023-05-07T12:15:36;10.90;;;10.10;;
58982;SDS011;44771;49.982;8.560;2023-05-07T12:53:23;10.95;;;10.23;;
58982;SDS011;44771;49.982;8.560;2023-05-07T12:58:39;10.77;;;9.82;;
58982;SDS011;44771;49.982;8.560;2023-05-07T13:03:40;10.95;;;10.15;;
58982;SDS011;44771;49.982;8.560;2023-05-07T13:08:44;11.88;;;10.98;;
58982;SDS011;44771;49.982;8.560;2023-05-07T13:13:45;11.00;;;10.30;;
58982;SDS011;44771;49.982;8.560;2023-05-07T13:18:47;10.23;;;9.57;;
58982;SDS011;44771;49.982;8.560;2023-05-07T13:23:51;10.02;;;9.43;;
58982;SDS011;44771;49.982;8.560;2023-05-07T13:28:52;9.68;;;9.07;;
58982;SDS011;44771;49.982;8.560;2023-05-07T13:33:55;9.65;;;8.85;;
58982;SDS011;44771;49.982;8.560;2023-05-07T13:38:58;9.85;;;9.18;;
58982;SDS011;44771;49.982;8.560;2023-05-07T13:44:00;11.23;;;10.25;;
58982;SDS011;44771;49.982;8.560;2023-05-07T13:49:04;11.40;;;10.68;;
58982;SDS011;44771;49.982;8.560;2023-05-07T13:54:07;9.98;;;9.07;;
58982;SDS011;44771;49.982;8.560;2023-05-07T13:59:09;10.98;;;10.18;;
58982;SDS011;44771;49.982;8.560;2023-05-07T14:04:10;10.00;;;9.40;;
58982;SDS011;44771;49.982;8.560;2023-05-07T14:09:14;10.40;;;9.60;;
58982;SDS011;44771;49.982;8.560;2023-05-07T14:14:16;11.75;;;10.90;;
58982;SDS011;44771;49.982;8.560;2023-05-07T14:19:21;10.77;;;10.15;;
58982;SDS011;44771;49.982;8.560;2023-05-07T14:24:27;10.65;;;9.85;;
58982;SDS011;44771;49.982;8.560;2023-05-07T14:29:44;12.48;;;11.68;;
58982;SDS011;44771;49.982;8.560;2023-05-07T14:34:49;11.32;;;10.60;;
58982;SDS011;44771;49.982;8.560;2023-05-07T14:39:53;11.48;;;10.55;;
58982;SDS011;44771;49.982;8.560;2023-05-07T14:44:55;12.73;;;11.93;;
58982;SDS011;44771;49.982;8.560;2023-05-07T14:50:35;11.90;;;11.10;;
58982;SDS011;44771;49.982;8.560;2023-05-07T14:55:41;12.13;;;11.23;;
58982;SDS011;44771;49.982;8.560;2023-05-07T15:00:43;11.52;;;10.68;;
58982;SDS011;44771;49.982;8.560;2023-05-07T15:05:45;12.90;;;11.90;;
58982;SDS011;44771;49.982;8.560;2023-05-07T15:10:49;10.80;;;10.10;;
58982;SDS011;44771;49.982;8.560;2023-05-07T15:15:50;12.68;;;11.88;;
58982;SDS011;44771;49.982;8.560;2023-05-07T15:20:52;11.73;;;10.93;;
58982;SDS011;44771;49.982;8.560;2023-05-07T15:25:55;12.70;;;11.77;;
58982;SDS011;44771;49.982;8.560;2023-05-07T15:30:57;12.75;;;11.95;;
58982;SDS011;44771;49.982;8.560;2023-05-07T15:35:59;13.20;;;12.30;;
58982;SDS011;44771;49.982;8.560;2023-05-07T15:41:02;12.35;;;11.57;;
58982;SDS011;44771;49.982;8.560;2023-05-07T15:46:04;13.38;;;12.45;;
58982;SDS011;44771;49.982;8.560;2023-05-07T15:51:06;13.55;;;12.63;;
58982;SDS011;44771;49.982;8.560;2023-05-07T15:56:10;14.50;;;13.40;;
58982;SDS011;44771;49.982;8.560;2023-05-07T16:07:07;13.73;;;12.73;;
58982;SDS011;44771;49.982;8.560;2023-05-07T16:12:14;13.80;;;12.90;;
58982;SDS011;44771;49.982;8.560;2023-05-07T16:17:22;12.40;;;11.55;;
58982;SDS011;44771;49.982;8.560;2023-05-07T16:22:27;12.98;;;12.18;;
58982;SDS011;44771;49.982;8.560;2023-05-07T16:27:30;14.40;;;13.30;;
58982;SDS011;44771;49.982;8.560;2023-05-07T16:32:32;14.35;;;13.20;;
58982;SDS011;44771;49.982;8.560;2023-05-07T16:37:34;14.77;;;13.35;;
58982;SDS011;44771;49.982;8.560;2023-05-07T16:42:37;14.68;;;13.48;;
58982;SDS011;44771;49.982;8.560;2023-05-07T16:47:41;13.90;;;12.98;;
58982;SDS011;44771;49.982;8.560;2023-05-07T16:52:43;14.02;;;13.02;;
58982;SDS011;44771;49.982;8.560;2023-05-07T16:57:46;13.50;;;12.60;;
58982;SDS011;44771;49.982;8.560;2023-05-07T17:02:48;14.07;;;13.05;;
58982;SDS011;44771;49.982;8.560;2023-05-07T17:07:50;14.02;;;13.10;;
58982;SDS011;44771;49.982;8.560;2023-05-07T17:12:53;12.77;;;11.63;;
58982;SDS011;44771;49.982;8.560;2023-05-07T17:17:56;12.70;;;11.73;;
58982;SDS011;44771;49.982;8.560;2023-05-07T17:22:57;13.82;;;12.85;;
58982;SDS011;44771;49.982;8.560;2023-05-07T17:28:02;14.82;;;13.80;;
58982;SDS011;44771;49.982;8.560;2023-05-07T17:33:12;14.23;;;13.13;;
58982;SDS011;44771;49.982;8.560;2023-05-07T17:38:22;14.32;;;13.30;;
58982;SDS011;44771;49.982;8.560;2023-05-07T17:43:34;14.27;;;13.27;;
58982;SDS011;44771;49.982;8.560;2023-05-07T17:48:36;14.00;;;12.98;;
58982;SDS011;44771;49.982;8.560;2023-05-07T17:53:40;14.50;;;13.37;;
58982;SDS011;44771;49.982;8.560;2023-05-07T17:58:43;14.65;;;13.52;;
58982;SDS011;44771;49.982;8.560;2023-05-07T18:03:59;14.77;;;13.38;;
58982;SDS011;44771;49.982;8.560;2023-05-07T18:09:01;14.43;;;13.18;;
58982;SDS011;44771;49.982;8.560;2023-05-07T18:14:04;14.85;;;13.23;;
58982;SDS011;44771;49.982;8.560;2023-05-07T18:19:09;13.90;;;12.82;;
58982;SDS011;44771;49.982;8.560;2023-05-07T18:24:12;15.80;;;14.30;;
58982;SDS011;44771;49.982;8.560;2023-05-07T18:29:15;17.23;;;15.63;;
58982;SDS011;44771;49.982;8.560;2023-05-07T18:34:17;16.23;;;14.87;;
58982;SDS011;44771;49.982;8.560;2023-05-07T18:39:19;17.08;;;15.32;;
58982;SDS011;44771;49.982;8.560;2023-05-07T18:44:22;15.88;;;14.18;;
58982;SDS011;44771;49.982;8.560;2023-05-07T18:49:24;15.48;;;14.07;;
58982;SDS011;44771;49.982;8.560;2023-05-07T18:54:26;15.70;;;14.25;;
58982;SDS011;44771;49.982;8.560;2023-05-07T18:59:30;16.17;;;14.77;;
58982;SDS011;44771;49.982;8.560;2023-05-07T19:04:32;16.62;;;12.95;;
58982;SDS011;44771;49.982;8.560;2023-05-07T19:09:34;14.90;;;13.52;;
58982;SDS011;44771;49.982;8.560;2023-05-07T19:14:38;15.15;;;13.43;;
58982;SDS011;44771;49.982;8.560;2023-05-07T19:19:47;16.75;;;15.13;;
58982;SDS011;44771;49.982;8.560;2023-05-07T19:24:53;14.63;;;13.43;;
58982;SDS011;44771;49.982;8.560;2023-05-07T19:29:57;15.90;;;14.60;;
58982;SDS011;44771;49.982;8.560;2023-05-07T19:35:00;18.05;;;16.25;;
58982;SDS011;44771;49.982;8.560;2023-05-07T19:40:04;14.82;;;13.62;;
58982;SDS011;44771;49.982;8.560;2023-05-07T19:45:08;16.35;;;14.95;;
58982;SDS011;44771;49.982;8.560;2023-05-07T19:50:13;16.25;;;14.95;;
58982;SDS011;44771;49.982;8.560;2023-05-07T19:55:18;16.65;;;15.00;;
58982;SDS011;44771;49.982;8.560;2023-05-07T20:00:21;18.20;;;16.60;;
58982;SDS011;44771;49.982;8.560;2023-05-07T20:05:23;18.30;;;16.67;;
58982;SDS011;44771;49.982;8.560;2023-05-07T20:10:26;18.37;;;16.60;;
58982;SDS011;44771;49.982;8.560;2023-05-07T20:15:29;20.33;;;18.00;;
58982;SDS011;44771;49.982;8.560;2023-05-07T20:20:31;19.05;;;17.25;;
58982;SDS011;44771;49.982;8.560;2023-05-07T20:25:32;18.35;;;16.42;;
58982;SDS011;44771;49.982;8.560;2023-05-07T20:30:35;18.92;;;16.83;;
58982;SDS011;44771;49.982;8.560;2023-05-07T20:35:37;17.65;;;15.95;;
58982;SDS011;44771;49.982;8.560;2023-05-07T20:40:39;19.85;;;17.70;;
58982;SDS011;44771;49.982;8.560;2023-05-07T20:45:42;22.67;;;18.35;;
58982;SDS011;44771;49.982;8.560;2023-05-07T20:50:47;24.48;;;20.83;;
58982;SDS011;44771;49.982;8.560;2023-05-07T20:55:55;19.87;;;17.77;;
58982;SDS011;44771;49.982;8.560;2023-05-07T21:00:59;21.80;;;17.90;;
58982;SDS011;44771;49.982;8.560;2023-05-07T21:06:01;21.27;;;16.65;;
58982;SDS011;44771;49.982;8.560;2023-05-07T21:11:08;21.95;;;18.55;;
58982;SDS011;44771;49.982;8.560;2023-05-07T21:16:11;21.15;;;18.73;;
58982;SDS011;44771;49.982;8.560;2023-05-07T21:21:13;22.02;;;19.08;;
58982;SDS011;44771;49.982;8.560;2023-05-07T21:26:16;21.65;;;18.17;;
58982;SDS011;44771;49.982;8.560;2023-05-07T21:31:21;22.17;;;19.40;;
58982;SDS011;44771;49.982;8.560;2023-05-07T21:36:26;21.62;;;19.40;;
58982;SDS011;44771;49.982;8.560;2023-05-07T21:41:30;21.77;;;18.83;;
58982;SDS011;44771;49.982;8.560;2023-05-07T21:46:38;26.58;;;20.00;;
58982;SDS011;44771;49.982;8.560;2023-05-07T21:51:44;21.35;;;19.10;;
58982;SDS011;44771;49.982;8.560;2023-05-07T21:56:46;23.10;;;18.87;;
58982;SDS011;44771;49.982;8.560;2023-05-07T22:01:54;24.87;;;19.40;;
58982;SDS011;44771;49.982;8.560;2023-05-07T22:06:58;29.05;;;20.45;;
58982;SDS011;44771;49.982;8.560;2023-05-07T22:12:04;28.48;;;21.12;;
58982;SDS011;44771;49.982;8.560;2023-05-07T22:17:11;20.48;;;17.75;;
58982;SDS011;44771;49.982;8.560;2023-05-07T22:22:13;20.37;;;18.27;;
58982;SDS011;44771;49.982;8.560;2023-05-07T22:27:14;21.52;;;19.27;;
58982;SDS011;44771;49.982;8.560;2023-05-07T22:32:18;20.98;;;18.52;;
58982;SDS011;44771;49.982;8.560;2023-05-07T22:37:20;23.38;;;19.17;;
58982;SDS011;44771;49.982;8.560;2023-05-07T22:42:29;27.90;;;19.83;;
58982;SDS011;44771;49.982;8.560;2023-05-07T22:47:32;26.15;;;21.60;;
58982;SDS011;44771;49.982;8.560;2023-05-07T22:52:34;24.42;;;21.05;;
58982;SDS011;44771;49.982;8.560;2023-05-07T22:57:39;24.75;;;19.35;;
58982;SDS011;44771;49.982;8.560;2023-05-07T23:02:42;23.30;;;17.98;;
58982;SDS011;44771;49.982;8.560;2023-05-07T23:07:48;21.95;;;19.65;;
58982;SDS011;44771;49.982;8.560;2023-05-07T23:12:50;36.35;;;20.20;;
58982;SDS011;44771;49.982;8.560;2023-05-07T23:17:53;23.40;;;19.83;;
58982;SDS011;44771;49.982;8.560;2023-05-07T23:22:54;23.83;;;20.88;;
58982;SDS011;44771;49.982;8.560;2023-05-07T23:27:56;22.85;;;20.33;;
58982;SDS011;44771;49.982;8.560;2023-05-07T23:32:59;26.60;;;20.88;;
58982;SDS011;44771;49.982;8.560;2023-05-07T23:38:04;28.42;;;21.30;;
58982;SDS011;44771;49.982;8.560;2023-05-07T23:48:27;27.37;;;22.05;;
58982;SDS011;44771;49.982;8.560;2023-05-07T23:53:40;27.08;;;21.70;;
58982;SDS011;44771;49.982;8.560;2023-05-07T23:58:45;24.73;;;21.77;;
